sensor_id;sensor_type;location;lat;lon;timestamp;pressure;altitude;pressure_sealevel;temperature;humidity
56400;BME280;42298;53.638;9.876;2023-03-16T00:00:49;101767.00;;;3.98;59.82
56400;BME280;42298;53.638;9.876;2023-03-16T00:03:15;101770.09;;;3.90;59.73
56400;BME280;42298;53.638;9.876;2023-03-16T00:05:50;101782.53;;;3.86;60.20
56400;BME280;42298;53.638;9.876;2023-03-16T00:08:18;101773.66;;;3.90;61.90
56400;BME280;42298;53.638;9.876;2023-03-16T00:10:46;101773.38;;;4.04;61.34
56400;BME280;42298;53.638;9.876;2023-03-16T00:13:16;101775.19;;;4.15;61.26
56400;BME280;42298;53.638;9.876;2023-03-16T00:15:49;101778.78;;;4.15;61.20
56400;BME280;42298;53.638;9.876;2023-03-16T00:18:15;101786.06;;;3.98;60.58
56400;BME280;42298;53.638;9.876;2023-03-16T00:20:41;101782.78;;;3.84;60.88
56400;BME280;42298;53.638;9.876;2023-03-16T00:23:06;101786.59;;;3.72;60.89
56400;BME280;42298;53.638;9.876;2023-03-16T00:25:31;101788.00;;;3.74;61.21
56400;BME280;42298;53.638;9.876;2023-03-16T00:27:58;101788.13;;;3.68;61.59
56400;BME280;42298;53.638;9.876;2023-03-16T00:30:23;101788.47;;;3.71;61.31
56400;BME280;42298;53.638;9.876;2023-03-16T00:32:48;101783.66;;;3.62;61.41
56400;BME280;42298;53.638;9.876;2023-03-16T00:35:14;101789.78;;;3.69;62.15
56400;BME280;42298;53.638;9.876;2023-03-16T00:37:39;101794.16;;;3.70;62.78
56400;BME280;42298;53.638;9.876;2023-03-16T00:40:09;101791.75;;;3.85;62.68
56400;BME280;42298;53.638;9.876;2023-03-16T00:42:37;101788.81;;;3.75;61.67
56400;BME280;42298;53.638;9.876;2023-03-16T00:45:03;101790.25;;;3.66;61.50
56400;BME280;42298;53.638;9.876;2023-03-16T00:47:31;101783.28;;;3.58;62.80
56400;BME280;42298;53.638;9.876;2023-03-16T00:49:58;101796.66;;;3.60;63.17
56400;BME280;42298;53.638;9.876;2023-03-16T00:52:25;101790.53;;;3.53;63.05
56400;BME280;42298;53.638;9.876;2023-03-16T00:54:52;101798.91;;;3.63;64.19
56400;BME280;42298;53.638;9.876;2023-03-16T00:57:21;101799.50;;;3.65;63.72
56400;BME280;42298;53.638;9.876;2023-03-16T00:59:47;101795.50;;;3.56;63.00
56400;BME280;42298;53.638;9.876;2023-03-16T01:02:15;101796.53;;;3.66;63.77
56400;BME280;42298;53.638;9.876;2023-03-16T01:04:40;101784.13;;;3.59;63.26
56400;BME280;42298;53.638;9.876;2023-03-16T01:07:08;101785.28;;;3.63;63.49
56400;BME280;42298;53.638;9.876;2023-03-16T01:09:35;101794.16;;;3.70;64.01
56400;BME280;42298;53.638;9.876;2023-03-16T01:12:10;101780.44;;;3.65;63.48
56400;BME280;42298;53.638;9.876;2023-03-16T01:14:36;101779.50;;;3.71;63.19
56400;BME280;42298;53.638;9.876;2023-03-16T01:17:02;101780.53;;;3.70;63.64
56400;BME280;42298;53.638;9.876;2023-03-16T01:19:28;101788.63;;;3.65;63.83
56400;BME280;42298;53.638;9.876;2023-03-16T01:21:55;101779.72;;;3.58;64.03
56400;BME280;42298;53.638;9.876;2023-03-16T01:24:20;101784.44;;;3.62;63.61
56400;BME280;42298;53.638;9.876;2023-03-16T01:26:45;101770.84;;;3.51;62.78
56400;BME280;42298;53.638;9.876;2023-03-16T01:29:11;101769.44;;;3.48;63.80
56400;BME280;42298;53.638;9.876;2023-03-16T01:31:37;101780.09;;;3.50;62.34
56400;BME280;42298;53.638;9.876;2023-03-16T01:34:03;101777.97;;;3.40;62.30
56400;BME280;42298;53.638;9.876;2023-03-16T01:36:29;101783.16;;;3.42;63.05
56400;BME280;42298;53.638;9.876;2023-03-16T01:38:58;101777.25;;;3.45;62.96
56400;BME280;42298;53.638;9.876;2023-03-16T01:41:24;101769.69;;;3.47;63.52
56400;BME280;42298;53.638;9.876;2023-03-16T01:43:51;101766.97;;;3.47;63.64
56400;BME280;42298;53.638;9.876;2023-03-16T01:46:25;101776.31;;;3.51;63.94
56400;BME280;42298;53.638;9.876;2023-03-16T01:49:16;101778.53;;;3.54;61.21
56400;BME280;42298;53.638;9.876;2023-03-16T01:51:58;101770.63;;;3.41;60.80
56400;BME280;42298;53.638;9.876;2023-03-16T01:54:47;101770.53;;;3.24;60.79
56400;BME280;42298;53.638;9.876;2023-03-16T01:57:38;101779.50;;;3.25;62.48
56400;BME280;42298;53.638;9.876;2023-03-16T02:00:24;101771.31;;;3.25;61.08
56400;BME280;42298;53.638;9.876;2023-03-16T02:02:57;101772.63;;;3.22;63.33
56400;BME280;42298;53.638;9.876;2023-03-16T02:07:51;101769.91;;;3.22;62.67
56400;BME280;42298;53.638;9.876;2023-03-16T02:10:22;101775.00;;;3.19;64.00
56400;BME280;42298;53.638;9.876;2023-03-16T02:12:48;101759.25;;;3.21;63.94
56400;BME280;42298;53.638;9.876;2023-03-16T02:15:15;101763.75;;;3.27;64.25
56400;BME280;42298;53.638;9.876;2023-03-16T02:17:42;101758.91;;;3.29;63.93
56400;BME280;42298;53.638;9.876;2023-03-16T02:22:50;101750.75;;;3.29;64.17
56400;BME280;42298;53.638;9.876;2023-03-16T02:25:21;101745.19;;;3.24;63.88
56400;BME280;42298;53.638;9.876;2023-03-16T02:30:20;101743.41;;;3.29;63.67
56400;BME280;42298;53.638;9.876;2023-03-16T02:32:48;101721.03;;;3.16;64.23
56400;BME280;42298;53.638;9.876;2023-03-16T02:35:16;101741.63;;;3.23;63.43
56400;BME280;42298;53.638;9.876;2023-03-16T02:37:41;101731.44;;;3.07;61.95
56400;BME280;42298;53.638;9.876;2023-03-16T02:40:27;101745.78;;;3.03;60.91
56400;BME280;42298;53.638;9.876;2023-03-16T02:45:41;101733.59;;;3.05;63.06
56400;BME280;42298;53.638;9.876;2023-03-16T02:48:21;101752.03;;;3.15;62.42
56400;BME280;42298;53.638;9.876;2023-03-16T02:50:51;101744.59;;;2.99;60.86
56400;BME280;42298;53.638;9.876;2023-03-16T02:53:17;101741.88;;;2.87;61.34
56400;BME280;42298;53.638;9.876;2023-03-16T02:55:44;101759.75;;;2.95;63.04
56400;BME280;42298;53.638;9.876;2023-03-16T02:58:10;101750.88;;;2.99;63.19
56400;BME280;42298;53.638;9.876;2023-03-16T03:00:37;101746.97;;;3.07;63.73
56400;BME280;42298;53.638;9.876;2023-03-16T03:03:03;101743.28;;;3.13;62.79
56400;BME280;42298;53.638;9.876;2023-03-16T03:05:30;101739.75;;;3.12;63.39
56400;BME280;42298;53.638;9.876;2023-03-16T03:07:55;101740.56;;;3.13;63.17
56400;BME280;42298;53.638;9.876;2023-03-16T03:10:21;101747.44;;;3.15;63.26
56400;BME280;42298;53.638;9.876;2023-03-16T03:12:46;101757.25;;;3.16;61.62
56400;BME280;42298;53.638;9.876;2023-03-16T03:15:14;101752.28;;;3.13;62.48
56400;BME280;42298;53.638;9.876;2023-03-16T03:17:41;101758.31;;;3.15;61.55
56400;BME280;42298;53.638;9.876;2023-03-16T03:20:08;101762.31;;;3.01;61.10
56400;BME280;42298;53.638;9.876;2023-03-16T03:22:43;101768.25;;;2.98;61.76
56400;BME280;42298;53.638;9.876;2023-03-16T03:25:10;101747.41;;;2.81;62.05
56400;BME280;42298;53.638;9.876;2023-03-16T03:27:36;101769.56;;;2.96;63.46
56400;BME280;42298;53.638;9.876;2023-03-16T03:30:03;101747.56;;;2.97;63.59
56400;BME280;42298;53.638;9.876;2023-03-16T03:32:31;101752.41;;;3.07;63.69
56400;BME280;42298;53.638;9.876;2023-03-16T03:34:57;101747.31;;;3.10;63.59
56400;BME280;42298;53.638;9.876;2023-03-16T03:37:22;101763.53;;;3.17;63.42
56400;BME280;42298;53.638;9.876;2023-03-16T03:39:49;101755.38;;;3.17;64.06
56400;BME280;42298;53.638;9.876;2023-03-16T03:42:17;101743.28;;;3.13;63.99
56400;BME280;42298;53.638;9.876;2023-03-16T03:44:43;101753.59;;;3.22;63.93
56400;BME280;42298;53.638;9.876;2023-03-16T03:47:08;101758.19;;;3.22;63.91
56400;BME280;42298;53.638;9.876;2023-03-16T03:49:33;101746.50;;;3.21;63.88
56400;BME280;42298;53.638;9.876;2023-03-16T03:52:00;101744.25;;;3.18;64.23
56400;BME280;42298;53.638;9.876;2023-03-16T03:54:28;101759.16;;;3.27;64.48
56400;BME280;42298;53.638;9.876;2023-03-16T03:56:54;101749.31;;;3.26;64.46
56400;BME280;42298;53.638;9.876;2023-03-16T03:59:19;101743.63;;;3.28;64.74
56400;BME280;42298;53.638;9.876;2023-03-16T04:01:44;101754.88;;;3.31;64.45
56400;BME280;42298;53.638;9.876;2023-03-16T04:04:10;101743.16;;;3.31;64.03
56400;BME280;42298;53.638;9.876;2023-03-16T04:06:35;101750.59;;;3.35;63.59
56400;BME280;42298;53.638;9.876;2023-03-16T04:09:00;101744.00;;;3.31;63.79
56400;BME280;42298;53.638;9.876;2023-03-16T04:11:26;101751.56;;;3.41;63.53
56400;BME280;42298;53.638;9.876;2023-03-16T04:13:52;101734.63;;;3.39;63.31
56400;BME280;42298;53.638;9.876;2023-03-16T04:16:18;101741.72;;;3.40;62.76
56400;BME280;42298;53.638;9.876;2023-03-16T04:18:43;101738.06;;;3.34;62.17
56400;BME280;42298;53.638;9.876;2023-03-16T04:21:15;101733.56;;;3.40;62.17
56400;BME280;42298;53.638;9.876;2023-03-16T04:23:41;101741.88;;;3.33;61.72
56400;BME280;42298;53.638;9.876;2023-03-16T04:26:07;101741.03;;;3.33;62.32
56400;BME280;42298;53.638;9.876;2023-03-16T04:28:32;101730.25;;;3.26;61.63
56400;BME280;42298;53.638;9.876;2023-03-16T04:31:02;101741.75;;;3.28;62.13
56400;BME280;42298;53.638;9.876;2023-03-16T04:33:29;101742.00;;;3.15;62.06
56400;BME280;42298;53.638;9.876;2023-03-16T04:35:56;101747.78;;;3.19;62.58
56400;BME280;42298;53.638;9.876;2023-03-16T04:38:23;101733.47;;;3.12;62.02
56400;BME280;42298;53.638;9.876;2023-03-16T04:40:48;101751.34;;;3.19;63.21
56400;BME280;42298;53.638;9.876;2023-03-16T04:43:14;101750.63;;;3.24;62.97
56400;BME280;42298;53.638;9.876;2023-03-16T04:45:39;101746.34;;;3.28;63.43
56400;BME280;42298;53.638;9.876;2023-03-16T04:48:05;101734.41;;;3.29;63.41
56400;BME280;42298;53.638;9.876;2023-03-16T04:50:31;101745.78;;;3.37;63.35
56400;BME280;42298;53.638;9.876;2023-03-16T04:52:56;101738.19;;;3.39;63.07
56400;BME280;42298;53.638;9.876;2023-03-16T04:55:22;101724.59;;;3.39;63.67
56400;BME280;42298;53.638;9.876;2023-03-16T04:57:47;101735.00;;;3.42;63.47
56400;BME280;42298;53.638;9.876;2023-03-16T05:00:13;101717.72;;;3.37;63.45
56400;BME280;42298;53.638;9.876;2023-03-16T05:02:46;101728.00;;;3.46;63.49
56400;BME280;42298;53.638;9.876;2023-03-16T05:05:12;101721.84;;;3.28;63.93
56400;BME280;42298;53.638;9.876;2023-03-16T05:07:37;101733.81;;;3.27;64.26
56400;BME280;42298;53.638;9.876;2023-03-16T05:10:03;101708.38;;;3.21;63.63
56400;BME280;42298;53.638;9.876;2023-03-16T05:12:28;101717.47;;;3.38;62.72
56400;BME280;42298;53.638;9.876;2023-03-16T05:14:54;101733.22;;;3.48;62.97
56400;BME280;42298;53.638;9.876;2023-03-16T05:17:19;101727.16;;;3.46;62.44
56400;BME280;42298;53.638;9.876;2023-03-16T05:19:44;101724.09;;;3.42;62.66
56400;BME280;42298;53.638;9.876;2023-03-16T05:22:10;101717.81;;;3.42;62.03
56400;BME280;42298;53.638;9.876;2023-03-16T05:24:36;101717.94;;;3.47;62.10
56400;BME280;42298;53.638;9.876;2023-03-16T05:27:01;101718.66;;;3.31;62.25
56400;BME280;42298;53.638;9.876;2023-03-16T05:29:29;101744.34;;;3.46;62.90
56400;BME280;42298;53.638;9.876;2023-03-16T05:31:56;101735.25;;;3.41;62.75
56400;BME280;42298;53.638;9.876;2023-03-16T05:34:21;101721.03;;;3.27;62.33
56400;BME280;42298;53.638;9.876;2023-03-16T05:36:48;101741.00;;;3.44;62.50
56400;BME280;42298;53.638;9.876;2023-03-16T05:39:13;101741.13;;;3.49;62.18
56400;BME280;42298;53.638;9.876;2023-03-16T05:41:39;101740.19;;;3.55;62.86
56400;BME280;42298;53.638;9.876;2023-03-16T05:44:05;101743.94;;;3.66;62.67
56400;BME280;42298;53.638;9.876;2023-03-16T05:46:31;101734.34;;;3.75;62.11
56400;BME280;42298;53.638;9.876;2023-03-16T05:48:57;101730.91;;;3.79;62.50
56400;BME280;42298;53.638;9.876;2023-03-16T05:51:22;101732.22;;;3.77;62.19
56400;BME280;42298;53.638;9.876;2023-03-16T05:53:51;101732.66;;;3.85;61.71
56400;BME280;42298;53.638;9.876;2023-03-16T05:56:21;101736.78;;;3.88;61.74
56400;BME280;42298;53.638;9.876;2023-03-16T05:58:50;101731.75;;;4.08;61.48
56400;BME280;42298;53.638;9.876;2023-03-16T06:01:16;101738.47;;;4.17;61.24
56400;BME280;42298;53.638;9.876;2023-03-16T06:03:41;101740.13;;;4.18;60.97
56400;BME280;42298;53.638;9.876;2023-03-16T06:06:07;101741.44;;;4.16;61.31
56400;BME280;42298;53.638;9.876;2023-03-16T06:08:32;101749.13;;;4.19;61.18
56400;BME280;42298;53.638;9.876;2023-03-16T06:10:57;101742.34;;;4.21;61.29
56400;BME280;42298;53.638;9.876;2023-03-16T06:13:24;101747.00;;;4.37;61.35
56400;BME280;42298;53.638;9.876;2023-03-16T06:15:51;101740.34;;;4.45;60.71
56400;BME280;42298;53.638;9.876;2023-03-16T06:18:16;101733.72;;;4.41;61.25
56400;BME280;42298;53.638;9.876;2023-03-16T06:20:41;101742.69;;;4.53;61.15
56400;BME280;42298;53.638;9.876;2023-03-16T06:23:08;101737.63;;;4.45;61.22
56400;BME280;42298;53.638;9.876;2023-03-16T06:25:34;101744.78;;;4.62;61.07
56400;BME280;42298;53.638;9.876;2023-03-16T06:27:59;101750.88;;;4.69;60.62
56400;BME280;42298;53.638;9.876;2023-03-16T06:30:26;101761.56;;;4.71;61.01
56400;BME280;42298;53.638;9.876;2023-03-16T06:32:53;101766.94;;;4.82;61.00
56400;BME280;42298;53.638;9.876;2023-03-16T06:35:18;101755.59;;;4.74;60.94
56400;BME280;42298;53.638;9.876;2023-03-16T06:37:43;101763.72;;;4.85;60.93
56400;BME280;42298;53.638;9.876;2023-03-16T06:40:09;101765.44;;;4.91;60.71
56400;BME280;42298;53.638;9.876;2023-03-16T06:42:35;101763.56;;;4.92;60.34
56400;BME280;42298;53.638;9.876;2023-03-16T06:45:00;101762.72;;;4.91;59.87
56400;BME280;42298;53.638;9.876;2023-03-16T06:47:26;101760.59;;;4.93;60.54
56400;BME280;42298;53.638;9.876;2023-03-16T06:49:52;101764.06;;;5.05;60.51
56400;BME280;42298;53.638;9.876;2023-03-16T06:52:19;101765.63;;;5.01;60.92
56400;BME280;42298;53.638;9.876;2023-03-16T06:54:46;101756.38;;;5.02;60.24
56400;BME280;42298;53.638;9.876;2023-03-16T06:57:12;101778.59;;;5.11;60.02
56400;BME280;42298;53.638;9.876;2023-03-16T06:59:38;101767.19;;;5.14;59.82
56400;BME280;42298;53.638;9.876;2023-03-16T07:02:03;101764.16;;;5.10;59.90
56400;BME280;42298;53.638;9.876;2023-03-16T07:04:31;101780.34;;;5.33;59.75
56400;BME280;42298;53.638;9.876;2023-03-16T07:06:59;101768.66;;;5.38;59.21
56400;BME280;42298;53.638;9.876;2023-03-16T07:09:25;101775.25;;;5.58;59.30
56400;BME280;42298;53.638;9.876;2023-03-16T07:11:52;101772.66;;;5.68;58.52
56400;BME280;42298;53.638;9.876;2023-03-16T07:14:17;101780.03;;;5.84;58.99
56400;BME280;42298;53.638;9.876;2023-03-16T07:16:44;101763.44;;;5.91;58.38
56400;BME280;42298;53.638;9.876;2023-03-16T07:19:09;101778.00;;;5.97;58.12
56400;BME280;42298;53.638;9.876;2023-03-16T07:21:35;101786.38;;;6.12;58.45
56400;BME280;42298;53.638;9.876;2023-03-16T07:24:05;101777.63;;;6.36;57.29
56400;BME280;42298;53.638;9.876;2023-03-16T07:26:31;101764.22;;;6.35;56.59
56400;BME280;42298;53.638;9.876;2023-03-16T07:28:57;101774.50;;;6.49;56.75
56400;BME280;42298;53.638;9.876;2023-03-16T07:31:23;101781.53;;;6.67;57.18
56400;BME280;42298;53.638;9.876;2023-03-16T07:33:50;101779.44;;;6.79;56.39
56400;BME280;42298;53.638;9.876;2023-03-16T07:36:19;101788.44;;;6.74;55.19
56400;BME280;42298;53.638;9.876;2023-03-16T07:38:45;101782.66;;;6.71;56.11
56400;BME280;42298;53.638;9.876;2023-03-16T07:41:10;101773.25;;;6.62;56.09
56400;BME280;42298;53.638;9.876;2023-03-16T07:43:36;101799.13;;;6.76;55.30
56400;BME280;42298;53.638;9.876;2023-03-16T07:46:02;101788.19;;;6.76;54.61
56400;BME280;42298;53.638;9.876;2023-03-16T07:48:28;101798.19;;;6.92;54.87
56400;BME280;42298;53.638;9.876;2023-03-16T07:50:53;101778.88;;;7.08;54.12
56400;BME280;42298;53.638;9.876;2023-03-16T07:53:19;101788.09;;;7.29;53.05
56400;BME280;42298;53.638;9.876;2023-03-16T07:55:45;101792.38;;;7.51;53.56
56400;BME280;42298;53.638;9.876;2023-03-16T07:58:11;101787.22;;;7.60;52.59
56400;BME280;42298;53.638;9.876;2023-03-16T08:00:36;101782.91;;;7.69;51.66
56400;BME280;42298;53.638;9.876;2023-03-16T08:03:08;101794.84;;;7.95;51.91
56400;BME280;42298;53.638;9.876;2023-03-16T08:05:33;101770.72;;;8.02;50.10
56400;BME280;42298;53.638;9.876;2023-03-16T08:07:59;101783.09;;;8.09;50.37
56400;BME280;42298;53.638;9.876;2023-03-16T08:10:26;101772.69;;;8.16;50.37
56400;BME280;42298;53.638;9.876;2023-03-16T08:12:56;101788.47;;;8.46;50.17
56400;BME280;42298;53.638;9.876;2023-03-16T08:15:22;101783.25;;;8.39;49.60
56400;BME280;42298;53.638;9.876;2023-03-16T08:17:47;101787.91;;;8.49;49.73
56400;BME280;42298;53.638;9.876;2023-03-16T08:20:13;101782.47;;;8.59;50.09
56400;BME280;42298;53.638;9.876;2023-03-16T08:22:42;101753.38;;;8.73;48.58
56400;BME280;42298;53.638;9.876;2023-03-16T08:25:10;101783.31;;;8.79;48.06
56400;BME280;42298;53.638;9.876;2023-03-16T08:27:36;101782.72;;;8.62;47.98
56400;BME280;42298;53.638;9.876;2023-03-16T08:30:07;101772.88;;;8.76;48.22
56400;BME280;42298;53.638;9.876;2023-03-16T08:32:36;101773.72;;;8.77;48.75
56400;BME280;42298;53.638;9.876;2023-03-16T08:35:02;101769.34;;;8.96;47.50
56400;BME280;42298;53.638;9.876;2023-03-16T08:37:27;101762.19;;;9.05;47.47
56400;BME280;42298;53.638;9.876;2023-03-16T08:39:53;101770.16;;;9.21;46.96
56400;BME280;42298;53.638;9.876;2023-03-16T08:42:19;101778.66;;;9.25;46.52
56400;BME280;42298;53.638;9.876;2023-03-16T08:44:46;101751.72;;;9.42;46.81
56400;BME280;42298;53.638;9.876;2023-03-16T08:47:14;101768.47;;;9.55;46.70
56400;BME280;42298;53.638;9.876;2023-03-16T08:49:40;101753.00;;;9.85;46.88
56400;BME280;42298;53.638;9.876;2023-03-16T08:52:08;101768.91;;;9.98;45.14
56400;BME280;42298;53.638;9.876;2023-03-16T08:54:40;101763.69;;;9.96;45.39
56400;BME280;42298;53.638;9.876;2023-03-16T08:57:06;101766.69;;;10.00;44.87
56400;BME280;42298;53.638;9.876;2023-03-16T08:59:33;101763.03;;;10.24;45.31
56400;BME280;42298;53.638;9.876;2023-03-16T09:01:58;101765.72;;;10.39;44.77
56400;BME280;42298;53.638;9.876;2023-03-16T09:04:25;101774.31;;;10.23;44.88
56400;BME280;42298;53.638;9.876;2023-03-16T09:06:52;101766.50;;;10.45;44.46
56400;BME280;42298;53.638;9.876;2023-03-16T09:09:19;101757.94;;;10.51;44.46
56400;BME280;42298;53.638;9.876;2023-03-16T09:11:44;101767.59;;;10.44;44.29
56400;BME280;42298;53.638;9.876;2023-03-16T09:14:11;101753.25;;;10.52;45.35
56400;BME280;42298;53.638;9.876;2023-03-16T09:16:36;101762.50;;;10.66;44.70
56400;BME280;42298;53.638;9.876;2023-03-16T09:19:03;101769.44;;;10.58;44.59
56400;BME280;42298;53.638;9.876;2023-03-16T09:21:30;101767.88;;;10.91;45.17
56400;BME280;42298;53.638;9.876;2023-03-16T09:23:55;101762.19;;;10.77;43.98
56400;BME280;42298;53.638;9.876;2023-03-16T09:26:21;101752.31;;;10.71;44.32
56400;BME280;42298;53.638;9.876;2023-03-16T09:28:47;101753.41;;;11.04;45.01
56400;BME280;42298;53.638;9.876;2023-03-16T09:31:16;101759.69;;;11.14;43.82
56400;BME280;42298;53.638;9.876;2023-03-16T09:33:42;101753.75;;;11.31;43.67
56400;BME280;42298;53.638;9.876;2023-03-16T09:36:07;101757.66;;;11.53;44.26
56400;BME280;42298;53.638;9.876;2023-03-16T09:38:35;101760.47;;;11.77;44.06
56400;BME280;42298;53.638;9.876;2023-03-16T09:44:09;101734.66;;;11.63;42.76
56400;BME280;42298;53.638;9.876;2023-03-16T09:46:44;101742.66;;;11.65;42.33
56400;BME280;42298;53.638;9.876;2023-03-16T09:49:12;101737.03;;;11.75;43.20
56400;BME280;42298;53.638;9.876;2023-03-16T09:54:48;101738.88;;;12.45;42.94
56400;BME280;42298;53.638;9.876;2023-03-16T09:57:26;101721.19;;;12.27;39.62
56400;BME280;42298;53.638;9.876;2023-03-16T09:59:55;101718.75;;;12.02;40.78
56400;BME280;42298;53.638;9.876;2023-03-16T10:05:20;101709.06;;;11.81;39.57
56400;BME280;42298;53.638;9.876;2023-03-16T10:07:56;101727.69;;;11.94;40.22
56400;BME280;42298;53.638;9.876;2023-03-16T10:13:27;101725.03;;;12.08;39.41
56400;BME280;42298;53.638;9.876;2023-03-16T10:15:55;101712.72;;;12.19;39.56
56400;BME280;42298;53.638;9.876;2023-03-16T10:18:56;101717.09;;;12.43;39.89
56400;BME280;42298;53.638;9.876;2023-03-16T10:21:24;101705.56;;;12.36;39.43
56400;BME280;42298;53.638;9.876;2023-03-16T10:23:51;101707.38;;;12.46;38.26
56400;BME280;42298;53.638;9.876;2023-03-16T10:26:32;101702.06;;;12.49;38.66
56400;BME280;42298;53.638;9.876;2023-03-16T10:29:08;101710.50;;;12.39;37.81
56400;BME280;42298;53.638;9.876;2023-03-16T10:31:34;101710.25;;;12.17;37.50
56400;BME280;42298;53.638;9.876;2023-03-16T10:34:04;101704.91;;;12.44;37.30
56400;BME280;42298;53.638;9.876;2023-03-16T10:36:33;101701.69;;;12.56;36.63
56400;BME280;42298;53.638;9.876;2023-03-16T10:39:04;101700.53;;;12.75;36.50
56400;BME280;42298;53.638;9.876;2023-03-16T10:41:36;101698.22;;;13.01;37.27
56400;BME280;42298;53.638;9.876;2023-03-16T10:44:09;101681.25;;;13.07;37.43
56400;BME280;42298;53.638;9.876;2023-03-16T10:49:03;101686.53;;;12.53;36.43
56400;BME280;42298;53.638;9.876;2023-03-16T10:51:32;101687.34;;;12.54;36.00
56400;BME280;42298;53.638;9.876;2023-03-16T10:54:14;101680.22;;;12.66;35.53
56400;BME280;42298;53.638;9.876;2023-03-16T10:56:44;101673.81;;;12.71;36.72
56400;BME280;42298;53.638;9.876;2023-03-16T10:59:31;101693.56;;;12.64;35.27
56400;BME280;42298;53.638;9.876;2023-03-16T11:02:00;101684.38;;;12.50;34.98
56400;BME280;42298;53.638;9.876;2023-03-16T11:04:30;101685.16;;;12.69;34.43
56400;BME280;42298;53.638;9.876;2023-03-16T11:06:59;101670.66;;;12.77;34.14
56400;BME280;42298;53.638;9.876;2023-03-16T11:09:32;101663.13;;;12.96;33.89
56400;BME280;42298;53.638;9.876;2023-03-16T11:12:00;101644.66;;;12.78;32.95
56400;BME280;42298;53.638;9.876;2023-03-16T11:14:36;101652.69;;;12.93;33.79
56400;BME280;42298;53.638;9.876;2023-03-16T11:17:05;101654.81;;;13.01;34.03
56400;BME280;42298;53.638;9.876;2023-03-16T11:19:37;101654.81;;;13.15;33.29
56400;BME280;42298;53.638;9.876;2023-03-16T11:22:23;101664.66;;;13.07;33.00
56400;BME280;42298;53.638;9.876;2023-03-16T11:32:39;101648.19;;;12.65;31.70
56400;BME280;42298;53.638;9.876;2023-03-16T11:35:16;101657.56;;;12.51;31.59
56400;BME280;42298;53.638;9.876;2023-03-16T11:37:50;101652.44;;;12.76;33.17
56400;BME280;42298;53.638;9.876;2023-03-16T11:46:06;101621.75;;;13.37;31.32
56400;BME280;42298;53.638;9.876;2023-03-16T11:48:40;101625.44;;;13.60;29.34
56400;BME280;42298;53.638;9.876;2023-03-16T11:54:02;101619.81;;;13.24;29.94
56400;BME280;42298;53.638;9.876;2023-03-16T11:56:44;101610.97;;;13.08;29.85
56400;BME280;42298;53.638;9.876;2023-03-16T12:04:46;101597.84;;;13.55;29.91
56400;BME280;42298;53.638;9.876;2023-03-16T12:20:51;101580.47;;;13.40;28.83
56400;BME280;42298;53.638;9.876;2023-03-16T12:23:49;101594.50;;;13.17;28.55
56400;BME280;42298;53.638;9.876;2023-03-16T12:26:10;101576.91;;;12.81;29.64
56400;BME280;42298;53.638;9.876;2023-03-16T12:28:37;101569.72;;;12.80;27.41
56400;BME280;42298;53.638;9.876;2023-03-16T12:36:53;101562.41;;;13.29;28.72
56400;BME280;42298;53.638;9.876;2023-03-16T12:42:31;101547.03;;;13.37;27.89
56400;BME280;42298;53.638;9.876;2023-03-16T12:48:10;101549.03;;;13.86;31.45
56400;BME280;42298;53.638;9.876;2023-03-16T12:50:55;101523.31;;;13.72;29.26
56400;BME280;42298;53.638;9.876;2023-03-16T12:56:14;101523.06;;;13.46;28.29
56400;BME280;42298;53.638;9.876;2023-03-16T12:58:44;101522.06;;;13.15;28.45
56400;BME280;42298;53.638;9.876;2023-03-16T13:01:13;101519.31;;;13.15;29.23
56400;BME280;42298;53.638;9.876;2023-03-16T13:03:42;101509.47;;;13.22;28.26
56400;BME280;42298;53.638;9.876;2023-03-16T13:06:16;101491.09;;;13.26;28.45
56400;BME280;42298;53.638;9.876;2023-03-16T13:08:47;101495.31;;;12.97;28.45
56400;BME280;42298;53.638;9.876;2023-03-16T13:11:14;101504.34;;;13.02;30.17
56400;BME280;42298;53.638;9.876;2023-03-16T13:13:49;101499.94;;;13.01;29.33
56400;BME280;42298;53.638;9.876;2023-03-16T13:18:52;101505.53;;;12.96;28.96
56400;BME280;42298;53.638;9.876;2023-03-16T13:21:39;101487.13;;;13.05;29.52
56400;BME280;42298;53.638;9.876;2023-03-16T13:24:27;101463.16;;;13.14;29.38
56400;BME280;42298;53.638;9.876;2023-03-16T13:27:18;101483.75;;;13.08;29.93
56400;BME280;42298;53.638;9.876;2023-03-16T13:29:52;101479.41;;;12.89;29.29
56400;BME280;42298;53.638;9.876;2023-03-16T13:32:20;101495.00;;;12.98;30.13
56400;BME280;42298;53.638;9.876;2023-03-16T13:34:51;101482.44;;;13.06;29.21
56400;BME280;42298;53.638;9.876;2023-03-16T13:37:19;101498.94;;;13.11;28.99
56400;BME280;42298;53.638;9.876;2023-03-16T13:39:57;101480.06;;;12.99;27.97
56400;BME280;42298;53.638;9.876;2023-03-16T13:42:24;101492.94;;;12.90;27.05
56400;BME280;42298;53.638;9.876;2023-03-16T13:44:54;101474.09;;;12.79;27.63
56400;BME280;42298;53.638;9.876;2023-03-16T13:47:24;101482.63;;;12.82;27.83
56400;BME280;42298;53.638;9.876;2023-03-16T13:49:56;101484.25;;;12.83;27.57
56400;BME280;42298;53.638;9.876;2023-03-16T13:52:32;101483.66;;;13.00;28.78
56400;BME280;42298;53.638;9.876;2023-03-16T13:55:00;101473.88;;;12.89;26.86
56400;BME280;42298;53.638;9.876;2023-03-16T13:57:34;101470.94;;;12.99;28.05
56400;BME280;42298;53.638;9.876;2023-03-16T14:00:14;101471.25;;;12.84;28.07
56400;BME280;42298;53.638;9.876;2023-03-16T14:02:45;101470.63;;;12.73;28.82
56400;BME280;42298;53.638;9.876;2023-03-16T14:05:17;101463.66;;;12.89;28.14
56400;BME280;42298;53.638;9.876;2023-03-16T14:07:45;101457.22;;;12.80;27.46
56400;BME280;42298;53.638;9.876;2023-03-16T14:10:11;101439.19;;;12.69;28.12
56400;BME280;42298;53.638;9.876;2023-03-16T14:12:52;101431.81;;;12.65;28.91
56400;BME280;42298;53.638;9.876;2023-03-16T14:15:19;101452.59;;;12.49;28.99
56400;BME280;42298;53.638;9.876;2023-03-16T14:17:46;101438.06;;;12.43;29.72
56400;BME280;42298;53.638;9.876;2023-03-16T14:20:22;101436.31;;;12.61;29.33
56400;BME280;42298;53.638;9.876;2023-03-16T14:22:51;101444.41;;;12.57;28.91